David Mcnemar — WDF4192 — position and weather

sailwx.info

Track history (hours):
 
Tides and Currents Weather Stations Pressure Air Temp Water Temp Dewpoint Dewpoint Depression Visibility Wind Speed Wind Dir Waves Ship Positions

David Mcnemar

Owner: Florida Marine Transporters, Inc., Mandeville, LA. More information available from US FCC via Universal Licensing System and Coast Guard Vessel Documentation Center.

Last reported at 2018-Feb-12 15:15 UTC. Time now 2018-Feb-23 16:12 UTC.
Position N 29°56' W 093°06'.
Warning: this ship's position is 11 days out of date.

Length 27 m; draft 2.8 m.

Type: Towing. MMSI: 367449040.

Date/timePositionNaut miles runAvg speedWind from/ knotsBaromVisibWave heightAir tempDewpointWater temp
2018-Feb-12 15:15N 29°56' W 093°06'1 3.8
2018-Feb-12 14:59N 29°56' W 093°07'2 3.9
2018-Feb-12 14:29N 29°56' W 093°09'2 3.9
2018-Feb-12 14:00N 29°57' W 093°11'2 3.9
2018-Feb-12 13:31N 29°59' W 093°12'2 3.5
2018-Feb-12 13:00N 30°00' W 093°14'2 3.6
2018-Feb-12 12:30N 30°02' W 093°14'2 3.4
2018-Feb-12 11:59N 30°03' W 093°16'2 4.5
2018-Feb-12 11:27N 30°05' W 093°17'1 3.1
2018-Feb-12 10:59N 30°06' W 093°19'2 4.6
2018-Feb-12 10:30N 30°05' W 093°20'2 4.1
2018-Feb-12 09:55N 30°04' W 093°23'2 4.8
2018-Feb-12 09:25N 30°04' W 093°26'2 4.8
2018-Feb-12 09:00N 30°04' W 093°28'3 4.8
2018-Feb-12 08:29N 30°04' W 093°31'2 4.7
2018-Feb-12 08:00N 30°04' W 093°34'2 4.6
2018-Feb-12 07:30N 30°04' W 093°36'2 4.5
2018-Feb-12 06:59N 30°04' W 093°39'2 4.6
2018-Feb-12 06:27N 30°04' W 093°42'2 4.7
2018-Feb-12 06:00N 30°03' W 093°44'2 4.7
2018-Feb-12 05:30N 30°01' W 093°46'2 4.7
2018-Feb-12 05:00N 29°59' W 093°48'3 5.6
2018-Feb-12 04:30N 29°58' W 093°51'2 3.4
2018-Feb-12 04:01N 29°59' W 093°53'3 5.7
2018-Feb-12 03:30N 29°59' W 093°56'2 5.0
2018-Feb-12 03:01N 30°01' W 093°58'0 0.6
2018-Feb-12 02:31N 30°01' W 093°58'0 0.0
2018-Feb-12 02:01N 30°01' W 093°58'0 0.0
2018-Feb-12 01:31N 30°01' W 093°58'0 0.0
2018-Feb-12 01:01N 30°01' W 093°58'0 0.0
2018-Feb-12 00:30N 30°01' W 093°58'0 0.0
2018-Feb-12 00:00N 30°01' W 093°58'0 0.0
2018-Feb-11 23:31N 30°01' W 093°58'0 0.0
2018-Feb-11 23:01N 30°01' W 093°58'0 0.0
2018-Feb-11 22:31N 30°01' W 093°58'0 0.0
2018-Feb-11 22:01N 30°01' W 093°58'0 0.0
2018-Feb-11 21:31N 30°01' W 093°58'0 0.0
2018-Feb-11 21:01N 30°01' W 093°58'0 0.0
2018-Feb-11 20:26N 30°01' W 093°58'0 0.0
2018-Feb-11 20:01N 30°01' W 093°58'0 0.0
2018-Feb-11 19:30N 30°01' W 093°58'0 0.0
2018-Feb-11 19:01N 30°01' W 093°58'0 0.0
2018-Feb-11 18:30N 30°01' W 093°58'0 0.0
2018-Feb-11 18:01N 30°01' W 093°58'0 0.0
2018-Feb-11 17:31N 30°01' W 093°58'0 0.0
2018-Feb-11 17:00N 30°01' W 093°58'0 0.0
2018-Feb-11 16:31N 30°01' W 093°58'0 0.0
2018-Feb-11 16:01N 30°01' W 093°58'0 0.0
2018-Feb-11 15:30N 30°01' W 093°58'0 0.0
2018-Feb-11 15:01N 30°01' W 093°58'0 0.0
2018-Feb-11 14:31N 30°01' W 093°58'0 0.0
2018-Feb-11 14:01N 30°01' W 093°58'0 0.0
2018-Feb-11 13:31N 30°01' W 093°58'0 0.0
2018-Feb-11 13:01N 30°01' W 093°58'0 0.0
2018-Feb-11 12:31N 30°01' W 093°58'0 0.0
2018-Feb-11 12:01N 30°01' W 093°58'0 0.0
2018-Feb-11 11:31N 30°01' W 093°58'0 0.0
2018-Feb-11 11:00N 30°01' W 093°58'0 0.0
2018-Feb-11 10:31N 30°01' W 093°58'0 0.0
2018-Feb-11 10:01N 30°01' W 093°58'0 0.0
2018-Feb-11 09:30N 30°01' W 093°58'0 0.0
2018-Feb-11 09:01N 30°01' W 093°58'0 0.0
2018-Feb-11 08:31N 30°01' W 093°58'0 0.0
2018-Feb-11 08:01N 30°01' W 093°58'0 0.0
2018-Feb-11 07:30N 30°01' W 093°58'0 0.0
2018-Feb-11 07:01N 30°01' W 093°58'0 0.0
2018-Feb-11 06:30N 30°01' W 093°58'0 0.0
2018-Feb-11 06:01N 30°01' W 093°58'0 0.0
2018-Feb-11 05:31N 30°01' W 093°58'0 0.0
2018-Feb-11 05:01N 30°01' W 093°58'0 0.1
2018-Feb-11 04:30N 30°01' W 093°58'2 3.2
2018-Feb-11 04:00N 29°60' W 093°57'2 4.3
2018-Feb-11 03:30N 29°59' W 093°54'0 0.8
2018-Feb-11 03:00N 29°60' W 093°55'0 0.0
2018-Feb-11 02:31N 29°60' W 093°55'0 0.0
2018-Feb-11 02:00N 29°60' W 093°55'0 0.0
2018-Feb-11 01:31N 29°60' W 093°55'0 0.0
2018-Feb-11 00:59N 29°60' W 093°55'0 0.0
2018-Feb-11 00:31N 29°60' W 093°55'0 0.0
2018-Feb-11 00:01N 29°60' W 093°55'0 0.0
2018-Feb-10 23:30N 29°60' W 093°55'0 0.0
2018-Feb-10 23:01N 29°60' W 093°55'0 0.0
2018-Feb-10 22:31N 29°60' W 093°55'0 0.0
2018-Feb-10 22:01N 29°60' W 093°55'0 0.0
2018-Feb-10 21:30N 29°60' W 093°55'0 0.0
2018-Feb-10 21:01N 29°60' W 093°55'0 0.0
2018-Feb-10 20:30N 29°60' W 093°55'0 0.0
2018-Feb-10 20:01N 29°60' W 093°55'0 0.0
2018-Feb-10 19:31N 29°60' W 093°55'0 0.0
2018-Feb-10 19:01N 29°60' W 093°55'0 0.0
2018-Feb-10 18:31N 29°60' W 093°55'0 0.0
2018-Feb-10 18:01N 29°60' W 093°55'0 0.0
2018-Feb-10 17:30N 29°60' W 093°55'0 0.0
2018-Feb-10 17:01N 29°60' W 093°55'0 0.0
2018-Feb-10 16:30N 29°60' W 093°55'0 0.0
2018-Feb-10 16:01N 29°60' W 093°55'0 0.0
2018-Feb-10 15:31N 29°60' W 093°55'0 0.0
2018-Feb-10 15:01N 29°60' W 093°55'0 0.0
2018-Feb-10 14:31N 29°60' W 093°55'0 0.0
2018-Feb-10 14:01N 29°60' W 093°55'0 0.0
2018-Feb-10 13:30N 29°60' W 093°55'0 0.0
2018-Feb-10 13:00N 29°60' W 093°55'0 0.0
2018-Feb-10 12:31N 29°60' W 093°55'0 0.0
2018-Feb-10 12:01N 29°60' W 093°55'0 0.0
2018-Feb-10 11:31N 29°60' W 093°55'0 0.0
2018-Feb-10 11:01N 29°60' W 093°55'0 0.0
2018-Feb-10 10:31N 29°60' W 093°55'0 0.0
2018-Feb-10 10:01N 29°60' W 093°55'0 0.0
2018-Feb-10 09:31N 29°60' W 093°55'0 0.0
2018-Feb-10 09:01N 29°60' W 093°55'0 0.0
2018-Feb-10 08:30N 29°60' W 093°55'0 0.0
2018-Feb-10 08:01N 29°60' W 093°55'0 0.0
2018-Feb-10 07:30N 29°60' W 093°55'0 0.0
2018-Feb-10 07:01N 29°60' W 093°55'0 0.0
2018-Feb-10 06:30N 29°60' W 093°55'0 0.0
2018-Feb-10 06:01N 29°60' W 093°55'0 0.0
2018-Feb-10 05:30N 29°60' W 093°55'0 0.0
2018-Feb-10 05:00N 29°60' W 093°55'0 0.0
2018-Feb-10 04:31N 29°60' W 093°55'0 0.0
2018-Feb-10 04:01N 29°60' W 093°55'0 0.0
2018-Feb-10 03:31N 29°60' W 093°55'0 0.0
2018-Feb-10 03:01N 29°60' W 093°55'0 0.0
2018-Feb-10 02:31N 29°60' W 093°55'0 0.0
2018-Feb-10 02:01N 29°60' W 093°55'0 0.0
2018-Feb-10 01:30N 29°60' W 093°55'0 0.0
2018-Feb-10 01:01N 29°60' W 093°55'0 0.0
2018-Feb-10 00:31N 29°60' W 093°55'0 0.0
2018-Feb-10 00:00N 29°60' W 093°55'0 0.0
2018-Feb-09 23:30N 29°60' W 093°55'0 0.0
2018-Feb-09 23:00N 29°60' W 093°55'0 0.0
2018-Feb-09 22:46N 29°60' W 093°55'0 0.0
2018-Feb-09 22:30N 29°60' W 093°55'0 0.0
2018-Feb-09 22:00N 29°60' W 093°55'0 0.0
2018-Feb-09 21:31N 29°60' W 093°55'0 0.0
2018-Feb-09 21:01N 29°60' W 093°55'0 0.0
2018-Feb-09 20:31N 29°60' W 093°55'0 0.0
2018-Feb-09 20:01N 29°60' W 093°55'0 0.0
2018-Feb-09 19:31N 29°60' W 093°55'3 2.0
2018-Feb-09 18:01N 29°58' W 093°52'0 0.1
2018-Feb-09 17:30N 29°58' W 093°52'0 0.0
2018-Feb-09 17:00N 29°58' W 093°52'1 1.3
2018-Feb-09 16:01N 29°59' W 093°53'2 3.5
2018-Feb-09 15:31N 29°60' W 093°55'0 0.0
2018-Feb-09 15:00N 29°60' W 093°55'5 4.6
2018-Feb-09 14:00N 29°59' W 093°49'3 6.7
2018-Feb-09 13:31N 30°00' W 093°46'1 2.0
2018-Feb-09 13:01N 30°01' W 093°45'11 4.2
2018-Feb-09 10:31N 30°04' W 093°33'10 6.7
2018-Feb-09 09:01N 30°04' W 093°22'5 3.1
2018-Feb-09 07:31N 30°04' W 093°16'68 2.2
2018-Feb-08 01:22N 29°50' W 092°00'0 0.0
2018-Feb-08 00:30N 29°50' W 092°00'  
2018-Feb-04 02:07N 29°48' W 092°06'1 5.5
2018-Feb-04 02:00N 29°47' W 092°07'3 5.1
2018-Feb-04 01:28N 29°47' W 092°10'2 4.4
2018-Feb-04 00:59N 29°47' W 092°12'1 1.9
2018-Feb-04 00:30N 29°48' W 092°13'3 5.1
2018-Feb-04 00:00N 29°49' W 092°16'3 4.7
2018-Feb-03 23:27N 29°50' W 092°18'40 2.9
2018-Feb-03 09:18N 29°56' W 093°04'2 4.1
2018-Feb-03 08:55N 29°56' W 093°06'2 4.3
2018-Feb-03 08:31N 29°56' W 093°08'2 3.3
2018-Feb-03 08:00N 29°57' W 093°10'6 4.0
2018-Feb-03 06:31N 30°01' W 093°14'1 1.9
2018-Feb-03 06:00N 30°02' W 093°15'2 3.2
2018-Feb-03 05:31N 30°03' W 093°16'1 2.8
2018-Feb-03 05:01N 30°05' W 093°17'3 2.8
2018-Feb-03 04:00N 30°05' W 093°20'2 3.4
2018-Feb-03 03:30N 30°04' W 093°21'3 2.0
2018-Feb-03 02:00N 30°04' W 093°24'2 4.2
2018-Feb-03 01:30N 30°04' W 093°27'2 4.3
2018-Feb-03 01:00N 30°04' W 093°29'2 4.3
2018-Feb-03 00:30N 30°04' W 093°32'2 4.2
2018-Feb-03 00:00N 30°04' W 093°34'2 4.1
2018-Feb-02 23:29N 30°04' W 093°37'2 4.5
2018-Feb-02 23:00N 30°04' W 093°39'5 3.5
2018-Feb-02 21:43N 30°02' W 093°44'1 4.6
2018-Feb-02 21:26N 30°01' W 093°45'3 4.9
2018-Feb-02 20:46N 29°59' W 093°48'1 5.1
2018-Feb-02 20:31N 29°59' W 093°50'2 3.5
2018-Feb-02 20:01N 29°59' W 093°52'5 5.5
2018-Feb-02 19:00N 30°01' W 093°57'1 2.7
2018-Feb-02 18:30N 30°01' W 093°59'0 0.2
2018-Feb-02 18:00N 30°01' W 093°59'0 0.1
2018-Feb-02 17:31N 30°01' W 093°59'0 0.0
2018-Feb-02 17:00N 30°01' W 093°59'0 0.0
2018-Feb-02 16:31N 30°01' W 093°59'0 0.0
2018-Feb-02 15:30N 30°01' W 093°59'  
Track history (hours):
 
Tides and Currents Weather Stations Pressure Air Temp Water Temp Dewpoint Dewpoint Depression Visibility Wind Speed Wind Dir Waves Ship Positions

David Mcnemar

Owner: Florida Marine Transporters, Inc., Mandeville, LA. More information available from US FCC via Universal Licensing System and Coast Guard Vessel Documentation Center.

Last reported at 2018-Feb-12 15:15 UTC. Time now 2018-Feb-23 16:12 UTC.
Position N 29°56' W 093°06'.
Warning: this ship's position is 11 days out of date.

Length 27 m; draft 2.8 m.

Type: Towing. MMSI: 367449040.

Date/timePositionNaut miles runAvg speedWind from/ knotsBaromVisibWave heightAir tempDewpointWater temp
2018-Feb-12 15:15N 29°56' W 093°06'1 3.8
2018-Feb-12 14:59N 29°56' W 093°07'2 3.9
2018-Feb-12 14:29N 29°56' W 093°09'2 3.9
2018-Feb-12 14:00N 29°57' W 093°11'2 3.9
2018-Feb-12 13:31N 29°59' W 093°12'2 3.5
2018-Feb-12 13:00N 30°00' W 093°14'2 3.6
2018-Feb-12 12:30N 30°02' W 093°14'2 3.4
2018-Feb-12 11:59N 30°03' W 093°16'2 4.5
2018-Feb-12 11:27N 30°05' W 093°17'1 3.1
2018-Feb-12 10:59N 30°06' W 093°19'2 4.6
2018-Feb-12 10:30N 30°05' W 093°20'2 4.1
2018-Feb-12 09:55N 30°04' W 093°23'2 4.8
2018-Feb-12 09:25N 30°04' W 093°26'2 4.8
2018-Feb-12 09:00N 30°04' W 093°28'3 4.8
2018-Feb-12 08:29N 30°04' W 093°31'2 4.7
2018-Feb-12 08:00N 30°04' W 093°34'2 4.6
2018-Feb-12 07:30N 30°04' W 093°36'2 4.5
2018-Feb-12 06:59N 30°04' W 093°39'2 4.6
2018-Feb-12 06:27N 30°04' W 093°42'2 4.7
2018-Feb-12 06:00N 30°03' W 093°44'2 4.7
2018-Feb-12 05:30N 30°01' W 093°46'2 4.7
2018-Feb-12 05:00N 29°59' W 093°48'3 5.6
2018-Feb-12 04:30N 29°58' W 093°51'2 3.4
2018-Feb-12 04:01N 29°59' W 093°53'3 5.7
2018-Feb-12 03:30N 29°59' W 093°56'2 5.0
2018-Feb-12 03:01N 30°01' W 093°58'0 0.6
2018-Feb-12 02:31N 30°01' W 093°58'0 0.0
2018-Feb-12 02:01N 30°01' W 093°58'0 0.0
2018-Feb-12 01:31N 30°01' W 093°58'0 0.0
2018-Feb-12 01:01N 30°01' W 093°58'0 0.0
2018-Feb-12 00:30N 30°01' W 093°58'0 0.0
2018-Feb-12 00:00N 30°01' W 093°58'0 0.0
2018-Feb-11 23:31N 30°01' W 093°58'0 0.0
2018-Feb-11 23:01N 30°01' W 093°58'0 0.0
2018-Feb-11 22:31N 30°01' W 093°58'0 0.0
2018-Feb-11 22:01N 30°01' W 093°58'0 0.0
2018-Feb-11 21:31N 30°01' W 093°58'0 0.0
2018-Feb-11 21:01N 30°01' W 093°58'0 0.0
2018-Feb-11 20:26N 30°01' W 093°58'0 0.0
2018-Feb-11 20:01N 30°01' W 093°58'0 0.0
2018-Feb-11 19:30N 30°01' W 093°58'0 0.0
2018-Feb-11 19:01N 30°01' W 093°58'0 0.0
2018-Feb-11 18:30N 30°01' W 093°58'0 0.0
2018-Feb-11 18:01N 30°01' W 093°58'0 0.0
2018-Feb-11 17:31N 30°01' W 093°58'0 0.0
2018-Feb-11 17:00N 30°01' W 093°58'0 0.0
2018-Feb-11 16:31N 30°01' W 093°58'0 0.0
2018-Feb-11 16:01N 30°01' W 093°58'0 0.0
2018-Feb-11 15:30N 30°01' W 093°58'0 0.0
2018-Feb-11 15:01N 30°01' W 093°58'0 0.0
2018-Feb-11 14:31N 30°01' W 093°58'0 0.0
2018-Feb-11 14:01N 30°01' W 093°58'0 0.0
2018-Feb-11 13:31N 30°01' W 093°58'0 0.0
2018-Feb-11 13:01N 30°01' W 093°58'0 0.0
2018-Feb-11 12:31N 30°01' W 093°58'0 0.0
2018-Feb-11 12:01N 30°01' W 093°58'0 0.0
2018-Feb-11 11:31N 30°01' W 093°58'0 0.0
2018-Feb-11 11:00N 30°01' W 093°58'0 0.0
2018-Feb-11 10:31N 30°01' W 093°58'0 0.0
2018-Feb-11 10:01N 30°01' W 093°58'0 0.0
2018-Feb-11 09:30N 30°01' W 093°58'0 0.0
2018-Feb-11 09:01N 30°01' W 093°58'0 0.0
2018-Feb-11 08:31N 30°01' W 093°58'0 0.0
2018-Feb-11 08:01N 30°01' W 093°58'0 0.0
2018-Feb-11 07:30N 30°01' W 093°58'0 0.0
2018-Feb-11 07:01N 30°01' W 093°58'0 0.0
2018-Feb-11 06:30N 30°01' W 093°58'0 0.0
2018-Feb-11 06:01N 30°01' W 093°58'0 0.0
2018-Feb-11 05:31N 30°01' W 093°58'0 0.0
2018-Feb-11 05:01N 30°01' W 093°58'0 0.1
2018-Feb-11 04:30N 30°01' W 093°58'2 3.2
2018-Feb-11 04:00N 29°60' W 093°57'2 4.3
2018-Feb-11 03:30N 29°59' W 093°54'0 0.8
2018-Feb-11 03:00N 29°60' W 093°55'0 0.0
2018-Feb-11 02:31N 29°60' W 093°55'0 0.0
2018-Feb-11 02:00N 29°60' W 093°55'0 0.0
2018-Feb-11 01:31N 29°60' W 093°55'0 0.0
2018-Feb-11 00:59N 29°60' W 093°55'0 0.0
2018-Feb-11 00:31N 29°60' W 093°55'0 0.0
2018-Feb-11 00:01N 29°60' W 093°55'0 0.0
2018-Feb-10 23:30N 29°60' W 093°55'0 0.0
2018-Feb-10 23:01N 29°60' W 093°55'0 0.0
2018-Feb-10 22:31N 29°60' W 093°55'0 0.0
2018-Feb-10 22:01N 29°60' W 093°55'0 0.0
2018-Feb-10 21:30N 29°60' W 093°55'0 0.0
2018-Feb-10 21:01N 29°60' W 093°55'0 0.0
2018-Feb-10 20:30N 29°60' W 093°55'0 0.0
2018-Feb-10 20:01N 29°60' W 093°55'0 0.0
2018-Feb-10 19:31N 29°60' W 093°55'0 0.0
2018-Feb-10 19:01N 29°60' W 093°55'0 0.0
2018-Feb-10 18:31N 29°60' W 093°55'0 0.0
2018-Feb-10 18:01N 29°60' W 093°55'0 0.0
2018-Feb-10 17:30N 29°60' W 093°55'0 0.0
2018-Feb-10 17:01N 29°60' W 093°55'0 0.0
2018-Feb-10 16:30N 29°60' W 093°55'0 0.0
2018-Feb-10 16:01N 29°60' W 093°55'0 0.0
2018-Feb-10 15:31N 29°60' W 093°55'0 0.0
2018-Feb-10 15:01N 29°60' W 093°55'0 0.0
2018-Feb-10 14:31N 29°60' W 093°55'0 0.0
2018-Feb-10 14:01N 29°60' W 093°55'0 0.0
2018-Feb-10 13:30N 29°60' W 093°55'0 0.0
2018-Feb-10 13:00N 29°60' W 093°55'0 0.0
2018-Feb-10 12:31N 29°60' W 093°55'0 0.0
2018-Feb-10 12:01N 29°60' W 093°55'0 0.0
2018-Feb-10 11:31N 29°60' W 093°55'0 0.0
2018-Feb-10 11:01N 29°60' W 093°55'0 0.0
2018-Feb-10 10:31N 29°60' W 093°55'0 0.0
2018-Feb-10 10:01N 29°60' W 093°55'0 0.0
2018-Feb-10 09:31N 29°60' W 093°55'0 0.0
2018-Feb-10 09:01N 29°60' W 093°55'0 0.0
2018-Feb-10 08:30N 29°60' W 093°55'0 0.0
2018-Feb-10 08:01N 29°60' W 093°55'0 0.0
2018-Feb-10 07:30N 29°60' W 093°55'0 0.0
2018-Feb-10 07:01N 29°60' W 093°55'0 0.0
2018-Feb-10 06:30N 29°60' W 093°55'0 0.0
2018-Feb-10 06:01N 29°60' W 093°55'0 0.0
2018-Feb-10 05:30N 29°60' W 093°55'0 0.0
2018-Feb-10 05:00N 29°60' W 093°55'0 0.0
2018-Feb-10 04:31N 29°60' W 093°55'0 0.0
2018-Feb-10 04:01N 29°60' W 093°55'0 0.0
2018-Feb-10 03:31N 29°60' W 093°55'0 0.0
2018-Feb-10 03:01N 29°60' W 093°55'0 0.0
2018-Feb-10 02:31N 29°60' W 093°55'0 0.0
2018-Feb-10 02:01N 29°60' W 093°55'0 0.0
2018-Feb-10 01:30N 29°60' W 093°55'0 0.0
2018-Feb-10 01:01N 29°60' W 093°55'0 0.0
2018-Feb-10 00:31N 29°60' W 093°55'0 0.0
2018-Feb-10 00:00N 29°60' W 093°55'0 0.0
2018-Feb-09 23:30N 29°60' W 093°55'0 0.0
2018-Feb-09 23:00N 29°60' W 093°55'0 0.0
2018-Feb-09 22:46N 29°60' W 093°55'0 0.0
2018-Feb-09 22:30N 29°60' W 093°55'0 0.0
2018-Feb-09 22:00N 29°60' W 093°55'0 0.0
2018-Feb-09 21:31N 29°60' W 093°55'0 0.0
2018-Feb-09 21:01N 29°60' W 093°55'0 0.0
2018-Feb-09 20:31N 29°60' W 093°55'0 0.0
2018-Feb-09 20:01N 29°60' W 093°55'0 0.0
2018-Feb-09 19:31N 29°60' W 093°55'3 2.0
2018-Feb-09 18:01N 29°58' W 093°52'0 0.1
2018-Feb-09 17:30N 29°58' W 093°52'0 0.0
2018-Feb-09 17:00N 29°58' W 093°52'1 1.3
2018-Feb-09 16:01N 29°59' W 093°53'2 3.5
2018-Feb-09 15:31N 29°60' W 093°55'0 0.0
2018-Feb-09 15:00N 29°60' W 093°55'5 4.6
2018-Feb-09 14:00N 29°59' W 093°49'3 6.7
2018-Feb-09 13:31N 30°00' W 093°46'1 2.0
2018-Feb-09 13:01N 30°01' W 093°45'11 4.2
2018-Feb-09 10:31N 30°04' W 093°33'10 6.7
2018-Feb-09 09:01N 30°04' W 093°22'5 3.1
2018-Feb-09 07:31N 30°04' W 093°16'68 2.2
2018-Feb-08 01:22N 29°50' W 092°00'0 0.0
2018-Feb-08 00:30N 29°50' W 092°00'  
2018-Feb-04 02:07N 29°48' W 092°06'1 5.5
2018-Feb-04 02:00N 29°47' W 092°07'3 5.1
2018-Feb-04 01:28N 29°47' W 092°10'2 4.4
2018-Feb-04 00:59N 29°47' W 092°12'1 1.9
2018-Feb-04 00:30N 29°48' W 092°13'3 5.1
2018-Feb-04 00:00N 29°49' W 092°16'3 4.7
2018-Feb-03 23:27N 29°50' W 092°18'40 2.9
2018-Feb-03 09:18N 29°56' W 093°04'2 4.1
2018-Feb-03 08:55N 29°56' W 093°06'2 4.3
2018-Feb-03 08:31N 29°56' W 093°08'2 3.3
2018-Feb-03 08:00N 29°57' W 093°10'6 4.0
2018-Feb-03 06:31N 30°01' W 093°14'1 1.9
2018-Feb-03 06:00N 30°02' W 093°15'2 3.2
2018-Feb-03 05:31N 30°03' W 093°16'1 2.8
2018-Feb-03 05:01N 30°05' W 093°17'3 2.8
2018-Feb-03 04:00N 30°05' W 093°20'2 3.4
2018-Feb-03 03:30N 30°04' W 093°21'3 2.0
2018-Feb-03 02:00N 30°04' W 093°24'2 4.2
2018-Feb-03 01:30N 30°04' W 093°27'2 4.3
2018-Feb-03 01:00N 30°04' W 093°29'2 4.3
2018-Feb-03 00:30N 30°04' W 093°32'2 4.2
2018-Feb-03 00:00N 30°04' W 093°34'2 4.1
2018-Feb-02 23:29N 30°04' W 093°37'2 4.5
2018-Feb-02 23:00N 30°04' W 093°39'5 3.5
2018-Feb-02 21:43N 30°02' W 093°44'1 4.6
2018-Feb-02 21:26N 30°01' W 093°45'3 4.9
2018-Feb-02 20:46N 29°59' W 093°48'1 5.1
2018-Feb-02 20:31N 29°59' W 093°50'2 3.5
2018-Feb-02 20:01N 29°59' W 093°52'5 5.5
2018-Feb-02 19:00N 30°01' W 093°57'1 2.7
2018-Feb-02 18:30N 30°01' W 093°59'0 0.2
2018-Feb-02 18:00N 30°01' W 093°59'0 0.1
2018-Feb-02 17:31N 30°01' W 093°59'0 0.0
2018-Feb-02 17:00N 30°01' W 093°59'0 0.0
2018-Feb-02 16:31N 30°01' W 093°59'0 0.0
2018-Feb-02 15:30N 30°01' W 093°59'  

Dump ship's entire track history